Time;durP1;ratioP1;P1;durP2;ratioP2;P2;SDS_P1;SDS_P2;PMS_P1;PMS_P2;Temp;Humidity;BMP_temperature;BMP_pressure;BME280_temperature;BME280_humidity;BME280_pressure;Samples;Min_cycle;Max_cycle;Signal;HPM_P1;HPM_P2
2024/01/06 00:02:04;;;;;;;11.13;8.50;;;;;;;;;;5026979;28;20914;-59
2024/01/06 00:04:29;;;;;;;11.27;8.17;;;;;;;;;;5028639;28;20399;-59
2024/01/06 00:06:54;;;;;;;9.90;7.87;;;;;;;;;;5028464;28;20426;-59
2024/01/06 00:09:20;;;;;;;10.32;7.80;;;;;;;;;;5027092;28;20857;-60
2024/01/06 00:11:45;;;;;;;10.73;8.27;;;;;;;;;;5026399;28;20494;-59
2024/01/06 00:14:10;;;;;;;10.60;7.63;;;;;;;;;;5027976;28;20474;-60
2024/01/06 00:16:36;;;;;;;8.50;6.60;;;;;;;;;;5027709;28;20465;-59
2024/01/06 00:19:02;;;;;;;9.07;7.35;;;;;;;;;;5027898;28;20395;-60
2024/01/06 00:21:27;;;;;;;9.25;7.65;;;;;;;;;;5027511;28;20403;-59
2024/01/06 00:23:52;;;;;;;9.40;7.40;;;;;;;;;;5027261;28;20411;-59
2024/01/06 00:26:18;;;;;;;9.70;7.63;;;;;;;;;;5027784;28;20735;-59
2024/01/06 00:28:43;;;;;;;9.50;7.63;;;;;;;;;;5028320;28;20422;-59
2024/01/06 00:31:08;;;;;;;10.17;7.90;;;;;;;;;;5026587;28;20473;-59
2024/01/06 00:33:34;;;;;;;9.88;7.68;;;;;;;;;;5028260;28;20899;-59
2024/01/06 00:35:59;;;;;;;10.23;8.13;;;;;;;;;;5027797;28;20403;-59
2024/01/06 00:38:24;;;;;;;9.83;7.80;;;;;;;;;;5027131;28;20775;-59
2024/01/06 00:40:49;;;;;;;10.03;7.70;;;;;;;;;;5027362;28;20499;-59
2024/01/06 00:43:15;;;;;;;11.20;8.40;;;;;;;;;;5026847;28;20474;-59
2024/01/06 00:45:40;;;;;;;10.33;8.27;;;;;;;;;;5027975;28;20767;-59
2024/01/06 00:48:06;;;;;;;11.27;8.70;;;;;;;;;;5029034;28;20407;-60
2024/01/06 00:50:31;;;;;;;9.60;7.87;;;;;;;;;;5033272;28;20932;-59
2024/01/06 00:52:56;;;;;;;10.80;8.40;;;;;;;;;;5034497;28;20403;-59
2024/01/06 00:55:22;;;;;;;11.27;8.70;;;;;;;;;;5033967;28;20387;-59
2024/01/06 00:57:47;;;;;;;10.13;8.15;;;;;;;;;;5033370;28;20402;-59
2024/01/06 01:00:12;;;;;;;11.17;8.87;;;;;;;;;;5033288;28;20427;-60
2024/01/06 01:02:38;;;;;;;11.77;8.83;;;;;;;;;;5034533;28;20971;-59
2024/01/06 01:05:03;;;;;;;10.95;8.55;;;;;;;;;;5033444;28;20387;-60
2024/01/06 01:07:28;;;;;;;10.73;8.33;;;;;;;;;;5034231;28;20391;-60
2024/01/06 01:09:56;;;;;;;10.20;8.27;;;;;;;;;;5033586;28;20431;-59
2024/01/06 01:12:21;;;;;;;11.73;9.15;;;;;;;;;;5033266;28;20438;-59
2024/01/06 01:14:46;;;;;;;11.60;9.40;;;;;;;;;;5034397;28;20457;-59
2024/01/06 01:17:12;;;;;;;13.30;9.48;;;;;;;;;;5033946;28;20728;-59
2024/01/06 01:19:37;;;;;;;13.10;10.00;;;;;;;;;;5032984;28;20452;-59
2024/01/06 01:22:02;;;;;;;11.87;9.47;;;;;;;;;;5033184;28;20418;-60
2024/01/06 01:24:28;;;;;;;10.83;8.73;;;;;;;;;;5034247;28;20456;-59
2024/01/06 01:26:53;;;;;;;11.10;8.73;;;;;;;;;;5033668;28;20506;-59
2024/01/06 01:29:20;;;;;;;11.50;9.13;;;;;;;;;;5033885;28;20890;-59
2024/01/06 01:31:45;;;;;;;12.25;10.02;;;;;;;;;;5033684;28;20403;-59
2024/01/06 01:34:10;;;;;;;12.68;9.57;;;;;;;;;;5033196;28;20395;-60
2024/01/06 01:36:36;;;;;;;10.43;8.77;;;;;;;;;;5033984;28;20387;-60
2024/01/06 01:39:01;;;;;;;11.13;9.00;;;;;;;;;;5033888;28;20579;-60
2024/01/06 01:41:26;;;;;;;11.83;9.30;;;;;;;;;;5031378;28;20409;-59
2024/01/06 01:43:57;;;;;;;11.33;9.47;;;;;;;;;;5034182;28;20395;-59
2024/01/06 01:46:24;;;;;;;12.65;9.63;;;;;;;;;;5033457;28;20387;-59
2024/01/06 01:48:50;;;;;;;11.20;9.40;;;;;;;;;;5027734;28;20819;-59
2024/01/06 01:51:15;;;;;;;12.10;9.50;;;;;;;;;;5032905;28;20462;-59
2024/01/06 01:53:41;;;;;;;11.10;9.20;;;;;;;;;;5033442;28;20747;-59
2024/01/06 01:56:06;;;;;;;10.20;8.37;;;;;;;;;;5032945;28;20395;-60
2024/01/06 01:58:31;;;;;;;12.20;9.37;;;;;;;;;;5032299;28;20441;-59
2024/01/06 02:00:56;;;;;;;11.40;9.20;;;;;;;;;;5029358;28;20880;-59
2024/01/06 02:03:22;;;;;;;11.87;9.07;;;;;;;;;;5030566;28;20383;-59
2024/01/06 02:05:47;;;;;;;12.73;9.93;;;;;;;;;;5029374;28;20437;-59
2024/01/06 02:08:12;;;;;;;12.20;9.43;;;;;;;;;;5029595;28;20818;-59
2024/01/06 02:10:37;;;;;;;12.20;8.93;;;;;;;;;;5030147;28;20410;-59
2024/01/06 02:13:09;;;;;;;13.43;9.87;;;;;;;;;;5030464;28;20997;-60
2024/01/06 02:15:34;;;;;;;13.27;10.30;;;;;;;;;;5017505;28;20459;-59
2024/01/06 02:18:00;;;;;;;13.70;10.47;;;;;;;;;;5002334;28;20921;-59
2024/01/06 02:20:25;;;;;;;12.90;10.00;;;;;;;;;;5000581;28;20409;-59
2024/01/06 02:22:50;;;;;;;12.55;9.82;;;;;;;;;;5019018;28;20475;-59
2024/01/06 02:25:16;;;;;;;13.77;10.70;;;;;;;;;;5001330;28;20752;-59
2024/01/06 02:27:41;;;;;;;14.27;10.47;;;;;;;;;;5035784;28;20407;-59
2024/01/06 02:30:07;;;;;;;14.63;11.20;;;;;;;;;;5015859;28;20814;-60
2024/01/06 02:32:32;;;;;;;13.70;10.63;;;;;;;;;;5007191;28;20424;-60
2024/01/06 02:34:57;;;;;;;14.47;11.17;;;;;;;;;;4994910;28;20471;-59
2024/01/06 02:37:23;;;;;;;13.23;10.47;;;;;;;;;;4996058;28;20772;-60
2024/01/06 02:39:48;;;;;;;14.07;11.23;;;;;;;;;;5000671;28;20393;-59
2024/01/06 02:42:13;;;;;;;13.57;10.70;;;;;;;;;;5000216;28;20413;-59
2024/01/06 02:44:38;;;;;;;14.40;10.60;;;;;;;;;;5000792;28;20408;-59
2024/01/06 02:47:04;;;;;;;15.00;12.07;;;;;;;;;;5000611;28;20412;-59
2024/01/06 02:49:29;;;;;;;15.83;12.07;;;;;;;;;;5010162;28;20813;-59
2024/01/06 02:51:54;;;;;;;15.23;12.33;;;;;;;;;;4999173;28;20420;-59
2024/01/06 02:54:20;;;;;;;15.93;12.10;;;;;;;;;;4993718;28;20926;-59
2024/01/06 02:56:45;;;;;;;18.00;13.40;;;;;;;;;;4993921;28;20404;-59
2024/01/06 02:59:10;;;;;;;15.63;12.70;;;;;;;;;;4993871;28;20896;-59
2024/01/06 03:01:36;;;;;;;17.13;13.30;;;;;;;;;;5000027;28;20439;-59
2024/01/06 03:04:01;;;;;;;18.15;14.05;;;;;;;;;;4999745;28;20405;-60
2024/01/06 03:06:27;;;;;;;19.30;14.17;;;;;;;;;;5019948;28;20664;-59
2024/01/06 03:08:52;;;;;;;16.10;12.90;;;;;;;;;;5020024;28;20396;-59
2024/01/06 03:11:17;;;;;;;17.40;12.90;;;;;;;;;;5018022;28;20399;-59
2024/01/06 03:13:42;;;;;;;16.50;13.00;;;;;;;;;;5020089;28;20866;-60
2024/01/06 03:16:08;;;;;;;17.43;13.30;;;;;;;;;;4997688;28;20409;-60
2024/01/06 03:18:33;;;;;;;18.23;13.60;;;;;;;;;;5002862;28;20995;-59
2024/01/06 03:20:58;;;;;;;16.97;12.90;;;;;;;;;;4992777;28;20445;-59
2024/01/06 03:23:24;;;;;;;16.90;12.48;;;;;;;;;;4998263;28;20989;-60
2024/01/06 03:25:49;;;;;;;15.63;11.70;;;;;;;;;;5000139;28;20393;-59
2024/01/06 03:28:14;;;;;;;14.30;11.57;;;;;;;;;;5004337;28;20404;-60
2024/01/06 03:30:40;;;;;;;12.23;9.07;;;;;;;;;;5025282;28;20402;-59
2024/01/06 03:33:06;;;;;;;13.20;9.25;;;;;;;;;;5008442;28;20417;-60
2024/01/06 03:35:31;;;;;;;12.90;9.40;;;;;;;;;;5012517;28;20407;-59
2024/01/06 03:37:56;;;;;;;14.57;9.60;;;;;;;;;;5028984;28;20812;-59
2024/01/06 03:40:21;;;;;;;12.77;9.10;;;;;;;;;;5027106;28;20490;-59
2024/01/06 03:42:47;;;;;;;11.43;8.67;;;;;;;;;;5028834;28;20946;-59
2024/01/06 03:45:13;;;;;;;9.88;7.78;;;;;;;;;;5028296;28;20391;-59
2024/01/06 03:47:38;;;;;;;11.83;8.47;;;;;;;;;;5027640;28;20856;-59
2024/01/06 03:50:04;;;;;;;11.32;8.23;;;;;;;;;;5023274;28;20406;-60
2024/01/06 03:52:29;;;;;;;10.60;8.20;;;;;;;;;;5037084;28;20617;-59
2024/01/06 03:54:54;;;;;;;10.70;8.23;;;;;;;;;;5048141;28;20511;-59
2024/01/06 03:57:20;;;;;;;11.40;8.70;;;;;;;;;;5030556;28;20395;-60
2024/01/06 03:59:45;;;;;;;12.63;8.73;;;;;;;;;;5027774;28;20417;-60
2024/01/06 04:02:10;;;;;;;12.57;8.98;;;;;;;;;;5027041;28;20411;-59
2024/01/06 04:04:35;;;;;;;11.93;9.40;;;;;;;;;;5028709;28;20494;-59
2024/01/06 04:07:01;;;;;;;11.33;9.13;;;;;;;;;;5027558;28;20402;-61
2024/01/06 04:09:26;;;;;;;12.27;9.53;;;;;;;;;;5028033;28;20413;-60
2024/01/06 04:11:52;;;;;;;12.50;9.38;;;;;;;;;;5027687;28;20475;-59
2024/01/06 04:14:17;;;;;;;16.50;12.10;;;;;;;;;;5027730;28;20398;-60
2024/01/06 04:16:42;;;;;;;13.03;10.10;;;;;;;;;;5027826;28;20454;-60
2024/01/06 04:19:08;;;;;;;15.03;12.07;;;;;;;;;;5027318;28;20448;-60
2024/01/06 04:21:34;;;;;;;18.80;13.68;;;;;;;;;;5025895;28;20410;-59
2024/01/06 04:23:59;;;;;;;20.07;13.63;;;;;;;;;;5028182;28;20514;-59
2024/01/06 04:26:24;;;;;;;14.80;12.63;;;;;;;;;;5027889;28;20894;-60
2024/01/06 04:28:50;;;;;;;17.23;13.40;;;;;;;;;;5027139;28;20843;-59
2024/01/06 04:31:15;;;;;;;19.40;14.43;;;;;;;;;;5027125;28;20460;-59
2024/01/06 04:33:40;;;;;;;22.05;15.48;;;;;;;;;;5027993;28;20910;-60
2024/01/06 04:36:06;;;;;;;22.07;15.37;;;;;;;;;;5023494;28;20454;-61
2024/01/06 04:38:32;;;;;;;19.13;14.60;;;;;;;;;;5028168;28;20399;-59
2024/01/06 04:40:57;;;;;;;17.77;12.90;;;;;;;;;;5027341;28;20720;-60
2024/01/06 04:43:22;;;;;;;17.60;13.73;;;;;;;;;;5027021;28;20402;-59
2024/01/06 04:45:47;;;;;;;16.53;12.63;;;;;;;;;;5028046;28;20460;-59
2024/01/06 04:48:13;;;;;;;17.08;12.20;;;;;;;;;;5022728;28;20490;-59
2024/01/06 04:50:38;;;;;;;17.73;13.03;;;;;;;;;;5026915;28;20430;-59
2024/01/06 04:53:03;;;;;;;17.33;12.33;;;;;;;;;;5027289;28;21122;-60
2024/01/06 04:55:28;;;;;;;17.00;12.77;;;;;;;;;;5028209;28;20442;-59
2024/01/06 04:57:54;;;;;;;18.33;13.83;;;;;;;;;;5026932;28;20909;-59
2024/01/06 05:00:19;;;;;;;16.40;12.80;;;;;;;;;;5017674;28;20425;-59
2024/01/06 05:02:44;;;;;;;18.93;14.23;;;;;;;;;;4999672;28;20408;-59
2024/01/06 05:05:10;;;;;;;19.30;14.47;;;;;;;;;;5023214;28;20792;-60
2024/01/06 05:07:35;;;;;;;21.00;15.90;;;;;;;;;;4999186;28;20396;-60
2024/01/06 05:10:00;;;;;;;22.57;15.93;;;;;;;;;;4996406;28;20397;-60
2024/01/06 05:12:25;;;;;;;17.35;13.77;;;;;;;;;;4990959;28;20393;-59
2024/01/06 05:14:51;;;;;;;18.90;14.43;;;;;;;;;;4991305;28;20812;-60
2024/01/06 05:17:16;;;;;;;19.67;14.90;;;;;;;;;;4997064;28;20400;-59
2024/01/06 05:19:41;;;;;;;19.80;14.00;;;;;;;;;;4997771;28;20420;-60
2024/01/06 05:22:07;;;;;;;19.90;14.30;;;;;;;;;;4998466;28;20458;-60
2024/01/06 05:24:32;;;;;;;17.58;13.85;;;;;;;;;;4998529;28;20823;-59
2024/01/06 05:26:57;;;;;;;21.63;15.10;;;;;;;;;;4998271;28;20463;-59
2024/01/06 05:29:24;;;;;;;20.57;15.27;;;;;;;;;;4998466;28;20483;-59
2024/01/06 05:31:49;;;;;;;19.40;14.35;;;;;;;;;;4997206;28;20474;-59
2024/01/06 05:34:15;;;;;;;20.33;15.45;;;;;;;;;;4994529;28;20412;-59
2024/01/06 05:36:40;;;;;;;18.63;15.10;;;;;;;;;;4995034;28;20927;-59
2024/01/06 05:39:05;;;;;;;18.63;14.63;;;;;;;;;;4994389;28;20396;-60
2024/01/06 05:41:36;;;;;;;16.75;13.27;;;;;;;;;;5000723;28;20540;-60
2024/01/06 05:44:02;;;;;;;20.95;15.90;;;;;;;;;;5017571;28;20412;-60
2024/01/06 05:46:27;;;;;;;19.67;15.10;;;;;;;;;;5001289;28;20478;-59
2024/01/06 05:48:52;;;;;;;20.20;15.03;;;;;;;;;;4997584;28;20407;-59
2024/01/06 05:51:18;;;;;;;18.50;14.93;;;;;;;;;;5001265;28;20427;-59
2024/01/06 05:53:43;;;;;;;18.83;14.68;;;;;;;;;;5002222;28;21128;-59
2024/01/06 05:56:09;;;;;;;21.33;15.80;;;;;;;;;;4995514;28;20409;-60
2024/01/06 05:58:34;;;;;;;17.00;13.25;;;;;;;;;;4994753;28;20989;-59
2024/01/06 06:01:00;;;;;;;17.33;13.70;;;;;;;;;;4993575;28;20828;-59
2024/01/06 06:03:25;;;;;;;20.07;15.07;;;;;;;;;;4998797;28;20768;-59
2024/01/06 06:05:50;;;;;;;19.30;14.60;;;;;;;;;;5001645;28;20397;-59
2024/01/06 06:08:16;;;;;;;20.97;14.90;;;;;;;;;;5001427;28;20402;-59
2024/01/06 06:10:51;;;;;;;19.67;15.00;;;;;;;;;;5001213;28;20990;-59
2024/01/06 06:13:16;;;;;;;21.53;15.40;;;;;;;;;;5002838;28;20407;-59
2024/01/06 06:15:42;;;;;;;20.97;15.40;;;;;;;;;;5018923;28;20407;-59
2024/01/06 06:18:07;;;;;;;18.83;14.47;;;;;;;;;;5029798;28;20806;-60
2024/01/06 06:20:32;;;;;;;17.20;12.53;;;;;;;;;;5029290;28;20437;-59
2024/01/06 06:22:57;;;;;;;17.77;13.73;;;;;;;;;;5029968;28;20411;-59
2024/01/06 06:25:23;;;;;;;18.23;14.13;;;;;;;;;;5029648;28;20410;-59
2024/01/06 06:27:48;;;;;;;19.83;14.50;;;;;;;;;;5030482;28;20403;-59
2024/01/06 06:30:13;;;;;;;17.83;13.83;;;;;;;;;;5028538;28;20411;-59
2024/01/06 06:32:39;;;;;;;18.30;13.80;;;;;;;;;;5030018;28;20490;-59
2024/01/06 06:35:04;;;;;;;20.10;14.33;;;;;;;;;;5028090;28;20422;-59
2024/01/06 06:37:30;;;;;;;17.87;13.77;;;;;;;;;;5028510;28;20728;-59
2024/01/06 06:39:55;;;;;;;18.17;13.63;;;;;;;;;;5027869;28;20396;-59
2024/01/06 06:42:20;;;;;;;16.73;12.55;;;;;;;;;;5027920;28;20712;-59
2024/01/06 06:44:46;;;;;;;19.27;14.07;;;;;;;;;;5028318;28;20461;-59
2024/01/06 06:47:12;;;;;;;19.02;13.82;;;;;;;;;;5028884;28;20955;-59
2024/01/06 06:49:37;;;;;;;16.40;13.37;;;;;;;;;;5025556;28;20395;-59
2024/01/06 06:52:03;;;;;;;16.23;12.80;;;;;;;;;;5028444;28;20842;-60
2024/01/06 06:54:28;;;;;;;17.52;13.68;;;;;;;;;;5029638;28;20425;-59
2024/01/06 06:56:54;;;;;;;16.27;13.02;;;;;;;;;;5028356;28;20395;-59
2024/01/06 06:59:19;;;;;;;16.30;12.77;;;;;;;;;;5029185;28;20399;-59
2024/01/06 07:01:44;;;;;;;16.27;12.83;;;;;;;;;;5028254;28;20778;-59
2024/01/06 07:04:10;;;;;;;15.83;12.67;;;;;;;;;;5028208;28;20772;-60
2024/01/06 07:06:35;;;;;;;17.37;12.50;;;;;;;;;;5028990;28;20743;-59
2024/01/06 07:09:00;;;;;;;14.77;11.82;;;;;;;;;;5028866;28;20493;-59
2024/01/06 07:11:25;;;;;;;16.10;12.27;;;;;;;;;;5026664;28;20395;-59
2024/01/06 07:13:51;;;;;;;13.57;11.00;;;;;;;;;;5026850;28;20477;-59
2024/01/06 07:16:16;;;;;;;15.90;11.87;;;;;;;;;;5025687;28;20884;-60
2024/01/06 07:18:41;;;;;;;14.03;11.30;;;;;;;;;;5027860;28;20414;-59
2024/01/06 07:21:07;;;;;;;15.60;11.65;;;;;;;;;;5024316;28;20978;-60
2024/01/06 07:23:32;;;;;;;16.07;12.40;;;;;;;;;;5027258;28;20411;-59
2024/01/06 07:25:57;;;;;;;15.73;12.27;;;;;;;;;;5028079;28;20481;-59
2024/01/06 07:28:23;;;;;;;15.75;12.20;;;;;;;;;;5028853;28;20780;-59
2024/01/06 07:30:48;;;;;;;15.03;11.80;;;;;;;;;;5028337;28;20502;-59
2024/01/06 07:33:13;;;;;;;14.27;11.53;;;;;;;;;;5028222;28;20387;-61
2024/01/06 07:35:43;;;;;;;15.50;12.17;;;;;;;;;;5029015;28;20494;-60
2024/01/06 07:38:10;;;;;;;15.43;11.45;;;;;;;;;;5028478;28;20743;-60
2024/01/06 07:40:35;;;;;;;16.13;12.13;;;;;;;;;;5027894;28;20423;-60
2024/01/06 07:43:01;;;;;;;16.20;11.93;;;;;;;;;;5028488;28;20525;-62
2024/01/06 07:45:27;;;;;;;15.30;12.57;;;;;;;;;;5028132;28;20560;-60
2024/01/06 07:47:52;;;;;;;17.07;13.13;;;;;;;;;;5025045;28;20494;-60
2024/01/06 07:50:18;;;;;;;17.73;13.15;;;;;;;;;;5027886;28;20497;-59
2024/01/06 07:52:43;;;;;;;16.63;12.80;;;;;;;;;;5027806;28;20486;-59
2024/01/06 07:55:08;;;;;;;16.57;12.73;;;;;;;;;;5027906;28;20433;-60
2024/01/06 07:57:34;;;;;;;17.60;13.23;;;;;;;;;;5028122;28;20395;-60
2024/01/06 08:00:00;;;;;;;15.60;12.80;;;;;;;;;;5026789;28;20897;-60
2024/01/06 08:02:25;;;;;;;17.70;13.20;;;;;;;;;;5027693;28;20456;-59
2024/01/06 08:04:51;;;;;;;17.83;13.47;;;;;;;;;;5028177;28;20818;-59
2024/01/06 08:07:16;;;;;;;17.80;12.88;;;;;;;;;;5026848;28;20497;-60
2024/01/06 08:09:42;;;;;;;17.70;12.87;;;;;;;;;;5027106;28;20415;-60
2024/01/06 08:12:07;;;;;;;15.32;11.90;;;;;;;;;;5024825;28;20403;-59
2024/01/06 08:14:33;;;;;;;16.27;11.60;;;;;;;;;;5026179;28;20403;-59
2024/01/06 08:16:58;;;;;;;16.13;12.52;;;;;;;;;;5027925;28;20403;-59
2024/01/06 08:19:23;;;;;;;17.93;12.73;;;;;;;;;;5027626;28;20466;-59
2024/01/06 08:21:49;;;;;;;17.70;13.07;;;;;;;;;;5027160;28;20442;-59
2024/01/06 08:24:14;;;;;;;17.00;12.33;;;;;;;;;;5027768;28;20422;-59
2024/01/06 08:26:39;;;;;;;19.05;13.32;;;;;;;;;;5028155;28;20910;-60
2024/01/06 08:29:05;;;;;;;15.47;11.43;;;;;;;;;;5027273;28;20902;-59
2024/01/06 08:31:30;;;;;;;16.87;12.10;;;;;;;;;;5027580;28;20399;-59
2024/01/06 08:33:55;;;;;;;16.43;12.30;;;;;;;;;;5027867;28;20439;-60
2024/01/06 08:36:21;;;;;;;15.93;11.23;;;;;;;;;;5027317;28;20390;-58
2024/01/06 08:38:46;;;;;;;18.37;13.30;;;;;;;;;;5027952;28;20906;-59
2024/01/06 08:41:12;;;;;;;17.67;12.03;;;;;;;;;;5025457;28;20474;-60
2024/01/06 08:43:37;;;;;;;15.30;10.50;;;;;;;;;;5027048;28;20402;-60
2024/01/06 08:46:02;;;;;;;17.83;12.20;;;;;;;;;;5027595;28;20429;-60
2024/01/06 08:48:28;;;;;;;17.43;11.97;;;;;;;;;;5023338;28;20400;-60
2024/01/06 08:50:53;;;;;;;16.77;11.20;;;;;;;;;;5034696;28;20417;-59
2024/01/06 08:53:18;;;;;;;16.95;10.98;;;;;;;;;;5047662;28;20397;-59
2024/01/06 08:55:43;;;;;;;15.93;11.10;;;;;;;;;;5034344;28;20439;-59
2024/01/06 08:58:09;;;;;;;18.33;11.47;;;;;;;;;;5031632;28;20405;-60
2024/01/06 09:00:34;;;;;;;19.07;11.97;;;;;;;;;;5044632;28;20401;-60
2024/01/06 09:02:59;;;;;;;16.60;11.90;;;;;;;;;;5026950;28;20471;-60
2024/01/06 09:05:25;;;;;;;18.40;12.10;;;;;;;;;;5027419;28;20383;-60
2024/01/06 09:07:50;;;;;;;18.40;12.40;;;;;;;;;;5028832;28;20457;-60
2024/01/06 09:10:17;;;;;;;15.40;11.20;;;;;;;;;;5030013;28;20901;-60
2024/01/06 09:12:42;;;;;;;16.90;11.80;;;;;;;;;;5031858;28;20391;-60
2024/01/06 09:15:08;;;;;;;19.43;12.97;;;;;;;;;;5031474;28;20498;-61
2024/01/06 09:17:34;;;;;;;17.27;12.25;;;;;;;;;;5030892;28;20395;-60
2024/01/06 09:19:59;;;;;;;21.17;12.90;;;;;;;;;;5031035;28;20395;-60
2024/01/06 09:22:25;;;;;;;18.43;12.63;;;;;;;;;;5030776;28;20771;-60
2024/01/06 09:24:50;;;;;;;22.57;14.33;;;;;;;;;;5031025;28;20450;-60
2024/01/06 09:27:15;;;;;;;22.35;13.90;;;;;;;;;;5030918;28;20399;-60
2024/01/06 09:29:41;;;;;;;21.20;14.23;;;;;;;;;;5030686;28;20754;-60
2024/01/06 09:32:06;;;;;;;20.38;13.60;;;;;;;;;;5030468;28;20460;-61
2024/01/06 09:34:32;;;;;;;18.57;12.97;;;;;;;;;;5031502;28;20395;-60
2024/01/06 09:36:57;;;;;;;18.97;12.93;;;;;;;;;;5030945;28;20785;-60
2024/01/06 09:39:22;;;;;;;18.63;13.37;;;;;;;;;;5030487;28;20754;-60
2024/01/06 09:41:47;;;;;;;18.98;13.60;;;;;;;;;;5030740;28;20399;-60
2024/01/06 09:44:13;;;;;;;22.77;14.40;;;;;;;;;;5029214;28;20758;-61
2024/01/06 09:46:40;;;;;;;20.73;13.87;;;;;;;;;;5030552;28;20924;-60
2024/01/06 09:49:06;;;;;;;16.52;12.57;;;;;;;;;;5026010;28;20403;-61
2024/01/06 09:51:31;;;;;;;18.40;13.25;;;;;;;;;;5030089;28;20917;-60
2024/01/06 09:53:58;;;;;;;19.77;13.67;;;;;;;;;;5030580;28;20457;-60
2024/01/06 09:56:24;;;;;;;17.75;12.98;;;;;;;;;;5028997;28;20383;-60
2024/01/06 09:58:49;;;;;;;16.27;11.88;;;;;;;;;;5030976;28;20821;-60
2024/01/06 10:01:14;;;;;;;20.20;13.17;;;;;;;;;;5029173;28;20898;-60
2024/01/06 10:03:40;;;;;;;20.90;14.67;;;;;;;;;;5030991;28;20627;-60
2024/01/06 10:06:05;;;;;;;16.83;12.60;;;;;;;;;;5029616;28;20663;-61
2024/01/06 10:08:32;;;;;;;17.63;13.10;;;;;;;;;;5030894;28;20398;-60
2024/01/06 10:10:58;;;;;;;17.73;12.93;;;;;;;;;;5028710;28;20407;-60
2024/01/06 10:13:24;;;;;;;16.60;12.23;;;;;;;;;;5029497;28;20457;-61
2024/01/06 10:15:49;;;;;;;18.75;13.20;;;;;;;;;;5030872;28;21110;-60
2024/01/06 10:18:14;;;;;;;17.80;13.32;;;;;;;;;;5028533;28;20403;-60
2024/01/06 10:20:40;;;;;;;16.80;12.00;;;;;;;;;;5028361;28;20422;-60
2024/01/06 10:23:05;;;;;;;18.53;13.67;;;;;;;;;;5045000;28;20498;-61
2024/01/06 10:25:31;;;;;;;18.30;13.50;;;;;;;;;;5030235;28;20901;-60
2024/01/06 10:27:56;;;;;;;18.37;13.77;;;;;;;;;;5028520;28;20434;-60
2024/01/06 10:30:21;;;;;;;17.30;12.80;;;;;;;;;;5029349;28;20708;-60
2024/01/06 10:32:47;;;;;;;19.03;13.70;;;;;;;;;;5030223;28;20395;-60
2024/01/06 10:35:12;;;;;;;17.53;13.40;;;;;;;;;;5029641;28;20408;-60
2024/01/06 10:37:37;;;;;;;17.40;12.20;;;;;;;;;;5029861;28;20516;-60
2024/01/06 10:40:13;;;;;;;16.07;11.90;;;;;;;;;;5027695;28;20804;-61
2024/01/06 10:42:40;;;;;;;18.02;13.52;;;;;;;;;;5029719;28;20422;-60
2024/01/06 10:45:06;;;;;;;18.30;13.10;;;;;;;;;;5029862;28;20399;-61
2024/01/06 10:47:33;;;;;;;19.27;14.85;;;;;;;;;;5028586;28;20394;-60
2024/01/06 10:49:59;;;;;;;17.93;13.60;;;;;;;;;;5024205;28;20383;-60
2024/01/06 10:52:24;;;;;;;17.02;12.70;;;;;;;;;;5029470;28;20482;-60
2024/01/06 10:54:50;;;;;;;19.05;13.38;;;;;;;;;;5028419;28;20410;-60
2024/01/06 10:57:17;;;;;;;16.93;12.63;;;;;;;;;;5027403;28;20470;-60
2024/01/06 10:59:42;;;;;;;18.45;13.43;;;;;;;;;;5028141;28;20395;-60
2024/01/06 11:02:07;;;;;;;17.97;13.17;;;;;;;;;;5027453;28;20407;-61
2024/01/06 11:04:33;;;;;;;16.73;11.90;;;;;;;;;;5029223;28;20485;-60
2024/01/06 11:06:58;;;;;;;15.40;12.20;;;;;;;;;;5029626;28;20406;-60
2024/01/06 11:09:24;;;;;;;20.00;13.90;;;;;;;;;;5028253;28;20533;-60
2024/01/06 11:11:50;;;;;;;17.77;13.40;;;;;;;;;;5027746;28;20411;-60
2024/01/06 11:14:17;;;;;;;20.55;14.00;;;;;;;;;;5029139;28;20775;-60
2024/01/06 11:16:43;;;;;;;15.20;11.45;;;;;;;;;;5028985;28;20395;-60
2024/01/06 11:19:27;;;;;;;17.48;12.63;;;;;;;;;;5028718;28;20410;-60
2024/01/06 11:21:52;;;;;;;14.77;10.88;;;;;;;;;;5028276;28;20441;-60
2024/01/06 11:24:20;;;;;;;14.47;11.00;;;;;;;;;;5027922;28;20438;-60
2024/01/06 11:26:45;;;;;;;15.27;11.85;;;;;;;;;;5029089;28;20407;-60
2024/01/06 11:29:11;;;;;;;18.52;12.63;;;;;;;;;;5028492;28;20414;-60
2024/01/06 11:31:36;;;;;;;15.33;11.30;;;;;;;;;;5028130;28;20441;-60
2024/01/06 11:34:18;;;;;;;15.75;10.93;;;;;;;;;;5028884;28;20406;-61
2024/01/06 11:36:45;;;;;;;16.17;11.70;;;;;;;;;;5029110;28;20442;-60
2024/01/06 11:39:30;;;;;;;17.27;11.98;;;;;;;;;;5027866;28;20429;-61
2024/01/06 11:41:56;;;;;;;17.55;12.73;;;;;;;;;;5028248;28;20414;-60
2024/01/06 11:44:21;;;;;;;17.02;13.05;;;;;;;;;;5026943;28;20383;-60
2024/01/06 11:46:47;;;;;;;17.07;12.67;;;;;;;;;;5028774;28;20407;-60
2024/01/06 11:49:12;;;;;;;15.55;12.30;;;;;;;;;;5023774;28;20999;-61
2024/01/06 11:51:37;;;;;;;15.43;11.47;;;;;;;;;;5027524;28;20438;-60
2024/01/06 11:54:03;;;;;;;16.93;12.40;;;;;;;;;;5027062;28;20405;-60
2024/01/06 11:56:28;;;;;;;14.77;11.53;;;;;;;;;;5028731;28;20613;-60
2024/01/06 11:58:54;;;;;;;15.95;11.80;;;;;;;;;;5027811;28;20395;-60
2024/01/06 12:01:19;;;;;;;14.83;10.97;;;;;;;;;;5027684;28;20407;-60
2024/01/06 12:03:44;;;;;;;13.93;10.90;;;;;;;;;;5028326;28;20507;-60
2024/01/06 12:06:09;;;;;;;14.10;11.27;;;;;;;;;;5027885;28;20391;-60
2024/01/06 12:08:35;;;;;;;16.17;12.83;;;;;;;;;;5028537;28;20403;-60
2024/01/06 12:11:02;;;;;;;16.30;12.33;;;;;;;;;;5028032;28;20403;-60
2024/01/06 12:13:27;;;;;;;14.45;11.00;;;;;;;;;;5027575;28;20387;-60
2024/01/06 12:15:52;;;;;;;17.10;13.67;;;;;;;;;;5028575;28;20759;-60
2024/01/06 12:18:17;;;;;;;15.37;13.07;;;;;;;;;;5027605;28;20399;-60
2024/01/06 12:20:45;;;;;;;14.48;11.93;;;;;;;;;;5027428;28;20419;-60
2024/01/06 12:23:10;;;;;;;16.30;13.68;;;;;;;;;;5027639;28;20466;-60
2024/01/06 12:25:38;;;;;;;15.85;12.77;;;;;;;;;;5027449;28;21354;-60
2024/01/06 12:28:04;;;;;;;13.40;10.88;;;;;;;;;;5027093;28;20962;-60
2024/01/06 12:30:31;;;;;;;16.07;13.07;;;;;;;;;;5027957;28;20395;-60
2024/01/06 12:32:56;;;;;;;15.57;13.20;;;;;;;;;;5027967;28;20816;-60
2024/01/06 12:35:22;;;;;;;17.43;13.67;;;;;;;;;;5027492;28;20885;-60
2024/01/06 12:37:48;;;;;;;15.38;12.68;;;;;;;;;;5028147;28;20948;-60
2024/01/06 12:40:13;;;;;;;16.77;13.57;;;;;;;;;;5026730;28;20414;-61
2024/01/06 12:42:38;;;;;;;16.53;12.80;;;;;;;;;;5026853;28;20429;-60
2024/01/06 12:45:04;;;;;;;17.03;13.77;;;;;;;;;;5027575;28;20463;-60
2024/01/06 12:47:29;;;;;;;16.30;13.07;;;;;;;;;;5027655;28;20395;-60
2024/01/06 12:49:54;;;;;;;15.47;13.23;;;;;;;;;;5020705;28;20457;-60
2024/01/06 12:52:20;;;;;;;16.93;14.10;;;;;;;;;;5027776;28;20454;-60
2024/01/06 12:54:45;;;;;;;17.23;13.87;;;;;;;;;;5027550;28;20395;-60
2024/01/06 12:57:11;;;;;;;16.23;13.70;;;;;;;;;;5026837;28;20834;-60
2024/01/06 12:59:36;;;;;;;16.33;13.40;;;;;;;;;;5027691;28;20959;-60
2024/01/06 13:02:02;;;;;;;17.70;14.30;;;;;;;;;;5024417;28;20407;-60
2024/01/06 13:04:27;;;;;;;17.15;14.23;;;;;;;;;;5027645;28;20669;-60
2024/01/06 13:06:52;;;;;;;16.63;13.53;;;;;;;;;;5027900;28;20483;-60
2024/01/06 13:09:18;;;;;;;17.80;13.80;;;;;;;;;;5026925;28;20486;-60
2024/01/06 13:11:46;;;;;;;17.17;14.43;;;;;;;;;;5027142;28;20407;-60
2024/01/06 13:14:11;;;;;;;17.90;14.80;;;;;;;;;;5026759;28;20898;-60
2024/01/06 13:16:36;;;;;;;19.25;14.70;;;;;;;;;;5027309;28;20417;-60
2024/01/06 13:19:02;;;;;;;16.67;13.83;;;;;;;;;;5026917;28;20395;-61
2024/01/06 13:21:28;;;;;;;16.73;13.87;;;;;;;;;;5026835;28;20402;-60
2024/01/06 13:23:54;;;;;;;17.02;14.10;;;;;;;;;;5027055;28;20418;-60
2024/01/06 13:26:19;;;;;;;17.43;14.17;;;;;;;;;;5026958;28;20413;-60
2024/01/06 13:28:44;;;;;;;17.57;14.53;;;;;;;;;;5027214;28;20529;-60
2024/01/06 13:31:09;;;;;;;17.80;14.87;;;;;;;;;;5025952;28;20418;-60
2024/01/06 13:33:35;;;;;;;17.95;14.55;;;;;;;;;;5027675;28;20399;-60
2024/01/06 13:36:00;;;;;;;16.60;13.57;;;;;;;;;;5027500;28;20403;-60
2024/01/06 13:38:26;;;;;;;18.53;15.17;;;;;;;;;;5026638;28;20399;-60
2024/01/06 13:40:52;;;;;;;19.42;15.02;;;;;;;;;;5026854;28;20419;-60
2024/01/06 13:43:17;;;;;;;19.35;15.60;;;;;;;;;;5027155;28;20471;-60
2024/01/06 13:45:44;;;;;;;25.40;21.37;;;;;;;;;;5026668;28;20403;-60
2024/01/06 13:48:09;;;;;;;19.60;16.13;;;;;;;;;;5022442;28;20399;-60
2024/01/06 13:50:34;;;;;;;18.00;14.10;;;;;;;;;;5026396;28;20453;-60
2024/01/06 13:53:02;;;;;;;19.50;15.63;;;;;;;;;;5025542;28;20403;-60
2024/01/06 13:55:27;;;;;;;17.55;14.65;;;;;;;;;;5030599;28;20418;-60
2024/01/06 13:57:53;;;;;;;20.77;16.43;;;;;;;;;;5030313;28;20937;-60
2024/01/06 14:00:20;;;;;;;19.43;14.90;;;;;;;;;;5029408;28;20457;-60
2024/01/06 14:02:46;;;;;;;21.60;17.15;;;;;;;;;;5011284;28;20421;-60
2024/01/06 14:05:12;;;;;;;18.75;15.10;;;;;;;;;;5017530;28;20902;-60
2024/01/06 14:07:40;;;;;;;20.67;17.40;;;;;;;;;;5030937;28;20453;-60
2024/01/06 14:10:05;;;;;;;20.20;16.30;;;;;;;;;;5029491;28;20395;-61
2024/01/06 14:12:31;;;;;;;22.20;16.35;;;;;;;;;;5030217;28;20396;-60